createdAt,value
2018-02-01T00:00:11.405Z,0.00
2018-02-01T00:01:11.358Z,0.00
2018-02-01T00:02:11.361Z,0.00
2018-02-01T00:03:11.268Z,0.00
2018-02-01T00:04:11.220Z,0.00
2018-02-01T00:05:11.170Z,0.00
2018-02-01T00:06:11.125Z,0.00
2018-02-01T00:07:11.080Z,0.00
2018-02-01T00:08:11.084Z,0.00
2018-02-01T00:09:10.994Z,0.00
2018-02-01T00:10:10.940Z,0.00
2018-02-01T00:11:11.191Z,0.00
2018-02-01T00:12:10.843Z,0.00
2018-02-01T00:13:10.797Z,0.00
2018-02-01T00:14:10.799Z,0.00
2018-02-01T00:15:10.702Z,0.00
2018-02-01T00:16:10.655Z,0.00
2018-02-01T00:17:10.908Z,0.00
2018-02-01T00:18:10.561Z,0.00
2018-02-01T00:19:10.515Z,0.00
2018-02-01T00:20:10.468Z,0.00
2018-02-01T00:21:10.419Z,0.00
2018-02-01T00:22:10.374Z,0.00
2018-02-01T00:23:10.628Z,0.00
2018-02-01T00:24:10.283Z,0.00
2018-02-01T00:25:10.283Z,0.00
2018-02-01T00:26:10.275Z,0.00
2018-02-01T00:27:10.144Z,0.00
2018-02-01T00:28:10.132Z,0.00
2018-02-01T00:29:10.346Z,0.00
2018-02-01T00:30:10.054Z,0.00
2018-02-01T00:31:10.006Z,0.00
2018-02-01T00:32:09.908Z,0.00
2018-02-01T00:33:09.861Z,0.00
2018-02-01T00:34:09.816Z,0.00
2018-02-01T00:35:09.777Z,0.00
2018-02-01T00:36:10.018Z,0.00
2018-02-01T00:37:09.675Z,0.00
2018-02-01T00:38:09.625Z,0.00
2018-02-01T00:39:09.578Z,0.00
2018-02-01T00:40:09.532Z,0.00
2018-02-01T00:41:09.483Z,0.00
2018-02-01T00:42:09.437Z,0.00
2018-02-01T00:43:09.690Z,0.00
2018-02-01T00:44:09.344Z,0.00
2018-02-01T00:45:09.296Z,0.00
2018-02-01T00:46:09.249Z,0.00
2018-02-01T00:47:09.204Z,0.00
2018-02-01T00:48:09.164Z,0.00
2018-02-01T00:49:09.109Z,0.00
2018-02-01T00:50:09.363Z,0.00
2018-02-01T00:51:09.015Z,0.00
2018-02-01T00:52:09.078Z,0.00
2018-02-01T00:53:08.921Z,0.00
2018-02-01T00:54:08.877Z,0.00
2018-02-01T00:55:08.827Z,0.00
2018-02-01T00:56:08.779Z,0.00
2018-02-01T00:57:09.036Z,0.00
2018-02-01T00:58:08.897Z,0.00
2018-02-01T00:59:08.645Z,0.00
2018-02-01T01:00:08.599Z,0.00
2018-02-01T01:01:08.544Z,0.00
2018-02-01T01:02:08.499Z,0.00
2018-02-01T01:03:08.453Z,0.00
2018-02-01T01:04:08.706Z,0.00
2018-02-01T01:05:08.356Z,0.00
2018-02-01T01:06:08.312Z,0.00
2018-02-01T01:07:08.263Z,0.00
2018-02-01T01:08:08.216Z,0.00
2018-02-01T01:09:08.167Z,0.00
2018-02-01T01:10:08.448Z,0.00
2018-02-01T01:11:08.075Z,0.00
2018-02-01T01:12:08.029Z,0.00
2018-02-01T01:13:07.981Z,0.00
2018-02-01T01:14:07.933Z,0.00
2018-02-01T01:15:07.885Z,0.00
2018-02-01T01:16:08.139Z,0.00
2018-02-01T01:17:07.793Z,0.00
2018-02-01T01:18:07.743Z,0.00
2018-02-01T01:19:07.702Z,0.00
2018-02-01T01:20:07.654Z,0.00
2018-02-01T01:21:07.603Z,0.00
2018-02-01T01:22:07.854Z,0.00
2018-02-01T01:23:07.512Z,0.00
2018-02-01T01:24:07.496Z,0.00
2018-02-01T01:25:07.414Z,0.00
2018-02-01T01:26:07.366Z,0.00
2018-02-01T01:27:07.321Z,0.00
2018-02-01T01:28:07.572Z,0.00
2018-02-01T01:29:07.225Z,0.00
2018-02-01T01:30:07.178Z,0.00
2018-02-01T01:31:07.131Z,0.00
2018-02-01T01:32:07.086Z,0.00
2018-02-01T01:33:07.036Z,0.00
2018-02-01T01:34:07.347Z,0.00
2018-02-01T01:35:06.945Z,0.00
2018-02-01T01:36:06.895Z,0.00
2018-02-01T01:37:06.850Z,0.00
2018-02-01T01:38:06.801Z,0.00
2018-02-01T01:39:06.756Z,0.00
2018-02-01T01:40:07.009Z,0.00
2018-02-01T01:41:06.694Z,0.00
2018-02-01T01:42:06.622Z,0.00
2018-02-01T01:43:06.574Z,0.00
2018-02-01T01:44:06.529Z,0.00
2018-02-01T01:45:06.525Z,0.00
2018-02-01T01:46:06.428Z,0.00
2018-02-01T01:47:06.684Z,0.00
2018-02-01T01:48:06.333Z,0.00
2018-02-01T01:49:06.284Z,0.00
2018-02-01T01:50:06.257Z,0.00
2018-02-01T01:51:06.243Z,0.00
2018-02-01T01:52:06.141Z,0.00
2018-02-01T01:53:06.094Z,0.00
2018-02-01T01:54:06.373Z,0.00
2018-02-01T01:55:06.004Z,0.00
2018-02-01T01:56:05.954Z,0.00
2018-02-01T01:57:06.060Z,0.00
2018-02-01T01:58:05.914Z,0.00
2018-02-01T01:59:05.813Z,0.00
2018-02-01T02:00:05.765Z,0.00
2018-02-01T02:01:06.021Z,0.00
2018-02-01T02:02:05.673Z,0.00
2018-02-01T02:03:05.629Z,0.00
2018-02-01T02:04:05.577Z,0.00
2018-02-01T02:05:05.533Z,0.00
2018-02-01T02:06:05.482Z,0.00
2018-02-01T02:07:05.436Z,0.00
2018-02-01T02:08:05.689Z,0.00
2018-02-01T02:09:05.349Z,0.00
2018-02-01T02:10:05.295Z,0.00
2018-02-01T02:11:05.249Z,0.00
2018-02-01T02:12:05.201Z,0.00
2018-02-01T02:13:05.209Z,0.00
2018-02-01T02:14:05.157Z,0.00
2018-02-01T02:15:05.363Z,0.00
2018-02-01T02:16:05.014Z,0.00
2018-02-01T02:17:04.965Z,0.00
2018-02-01T02:18:04.930Z,0.00
2018-02-01T02:19:04.871Z,0.00
2018-02-01T02:20:04.824Z,0.00
2018-02-01T02:21:05.076Z,0.00
2018-02-01T02:22:04.733Z,0.00
2018-02-01T02:23:04.681Z,0.00
2018-02-01T02:24:04.687Z,0.00
2018-02-01T02:25:04.589Z,0.00
2018-02-01T02:26:04.550Z,0.00
2018-02-01T02:27:04.794Z,0.00
2018-02-01T02:28:04.463Z,0.00
2018-02-01T02:29:04.400Z,0.00
2018-02-01T02:30:04.356Z,0.00
2018-02-01T02:31:04.311Z,0.00
2018-02-01T02:32:04.260Z,0.00
2018-02-01T02:33:04.521Z,0.00
2018-02-01T02:34:04.168Z,0.00
2018-02-01T02:36:04.127Z,0.00
2018-02-01T02:37:04.031Z,0.00
2018-02-01T02:38:03.982Z,0.00
2018-02-01T02:39:04.232Z,0.00
2018-02-01T02:40:03.886Z,0.00
2018-02-01T02:41:03.839Z,0.00
2018-02-01T02:42:03.842Z,0.00
2018-02-01T02:43:03.747Z,0.00
2018-02-01T02:44:03.701Z,0.00
2018-02-01T02:45:03.952Z,0.00
2018-02-01T02:46:03.604Z,0.00
2018-02-01T02:47:03.559Z,0.00
2018-02-01T02:48:03.508Z,0.00
2018-02-01T02:49:03.461Z,0.00
2018-02-01T02:50:03.417Z,0.00
2018-02-01T02:51:03.671Z,0.00
2018-02-01T02:52:03.388Z,0.00
2018-02-01T02:53:03.275Z,0.00
2018-02-01T02:54:03.234Z,0.00
2018-02-01T02:55:03.179Z,0.00
2018-02-01T02:56:03.138Z,0.00
2018-02-01T02:57:03.085Z,0.00
2018-02-01T02:58:03.338Z,0.00
2018-02-01T02:59:02.992Z,0.00
2018-02-01T03:00:02.956Z,0.00
2018-02-01T03:01:02.894Z,0.00
2018-02-01T03:02:02.849Z,0.00
2018-02-01T03:03:02.802Z,0.00
2018-02-01T03:04:02.805Z,0.00
2018-02-01T03:05:03.007Z,0.00
2018-02-01T03:06:02.709Z,0.00
2018-02-01T03:07:02.665Z,0.00
2018-02-01T03:08:02.621Z,0.00
2018-02-01T03:09:02.518Z,0.00
2018-02-01T03:10:02.528Z,0.00
2018-02-01T03:11:02.424Z,0.00
2018-02-01T03:12:02.678Z,0.00
2018-02-01T03:13:02.334Z,0.00
2018-02-01T03:14:02.282Z,0.00
2018-02-01T03:15:02.239Z,0.00
2018-02-01T03:16:02.190Z,0.00
2018-02-01T03:17:02.191Z,0.00
2018-02-01T03:18:02.145Z,0.00
2018-02-01T03:19:02.347Z,0.00
2018-02-01T03:20:02.001Z,0.00
2018-02-01T03:21:01.953Z,0.00
2018-02-01T03:22:01.906Z,0.00
2018-02-01T03:23:01.860Z,0.00
2018-02-01T03:24:01.814Z,0.00
2018-02-01T03:25:01.767Z,0.00
2018-02-01T03:26:02.020Z,0.00
2018-02-01T03:27:01.671Z,0.00
2018-02-01T03:28:01.629Z,0.00
2018-02-01T03:29:01.578Z,0.00
2018-02-01T03:30:01.529Z,0.00
2018-02-01T03:31:01.485Z,0.00
2018-02-01T03:32:01.742Z,0.00
2018-02-01T03:33:01.389Z,0.00
2018-02-01T03:34:01.341Z,0.00
2018-02-01T03:35:01.296Z,0.00
2018-02-01T03:36:01.299Z,0.00
2018-02-01T03:37:01.199Z,0.00
2018-02-01T03:38:01.452Z,0.00
2018-02-01T03:39:01.108Z,0.00
2018-02-01T03:40:01.060Z,0.00
2018-02-01T03:41:01.011Z,0.00
2018-02-01T03:42:01.012Z,0.00
2018-02-01T03:43:00.918Z,0.00
2018-02-01T03:44:01.174Z,0.00
2018-02-01T03:45:00.876Z,0.00
2018-02-01T03:46:00.775Z,0.00
2018-02-01T03:47:00.730Z,0.00
2018-02-01T03:48:00.681Z,0.00
2018-02-01T03:49:00.635Z,0.00
2018-02-01T03:50:00.896Z,0.00
2018-02-01T03:51:00.543Z,0.00
2018-02-01T03:52:00.496Z,0.00
2018-02-01T03:53:00.448Z,0.00
2018-02-01T03:54:00.398Z,0.00
2018-02-01T03:55:00.354Z,0.00
2018-02-01T03:56:00.604Z,0.00
2018-02-01T03:57:00.257Z,0.00
2018-02-01T03:58:00.260Z,0.00
2018-02-01T03:59:00.174Z,0.00
2018-02-01T04:00:00.117Z,0.00
2018-02-01T04:01:00.075Z,0.00
2018-02-01T04:02:00.022Z,0.00
2018-02-01T04:03:00.273Z,0.00
2018-02-01T04:03:59.977Z,0.00
2018-02-01T04:04:59.880Z,0.00
2018-02-01T04:05:59.834Z,0.00
2018-02-01T04:06:59.786Z,0.00
2018-02-01T04:07:59.738Z,0.00
2018-02-01T04:08:59.694Z,0.00
2018-02-01T04:09:59.944Z,0.00
2018-02-01T04:10:59.597Z,0.00
2018-02-01T04:11:59.550Z,0.00
2018-02-01T04:12:59.501Z,0.00
2018-02-01T04:13:59.458Z,0.00
2018-02-01T04:14:59.408Z,0.00
2018-02-01T04:15:59.359Z,0.00
2018-02-01T04:16:59.616Z,0.00
2018-02-01T04:17:59.269Z,0.00
2018-02-01T04:18:59.219Z,0.00
2018-02-01T04:19:59.181Z,0.00
2018-02-01T04:20:59.128Z,0.00
2018-02-01T04:21:59.078Z,0.00
2018-02-01T04:22:59.032Z,0.00
2018-02-01T04:23:59.286Z,0.00
2018-02-01T04:24:58.936Z,0.00
2018-02-01T04:25:58.890Z,0.00
2018-02-01T04:26:58.842Z,0.00
2018-02-01T04:27:58.798Z,0.00
2018-02-01T04:28:58.752Z,0.00
2018-02-01T04:29:58.753Z,0.00
2018-02-01T04:30:58.955Z,0.00
2018-02-01T04:31:58.609Z,0.00
2018-02-01T04:32:58.569Z,0.00
2018-02-01T04:33:58.512Z,0.00
2018-02-01T04:34:58.467Z,0.00
2018-02-01T04:35:58.419Z,0.00
2018-02-01T04:36:58.370Z,0.00
2018-02-01T04:37:58.626Z,0.00
2018-02-01T04:38:58.276Z,0.00
2018-02-01T04:39:58.234Z,0.00
2018-02-01T04:40:58.181Z,0.00
2018-02-01T04:41:58.136Z,0.00
2018-02-01T04:42:58.089Z,0.00
2018-02-01T04:43:58.342Z,0.00
2018-02-01T04:44:57.995Z,0.00
2018-02-01T04:45:57.998Z,0.00
2018-02-01T04:46:57.906Z,0.00
2018-02-01T04:47:57.906Z,0.00
2018-02-01T04:48:57.806Z,0.00
2018-02-01T04:49:58.058Z,0.00
2018-02-01T04:50:57.734Z,0.00
2018-02-01T04:51:57.715Z,0.00
2018-02-01T04:52:57.616Z,0.00
2018-02-01T04:53:57.570Z,0.00
2018-02-01T04:54:57.525Z,0.00
2018-02-01T04:55:57.777Z,0.00
2018-02-01T04:56:57.427Z,0.00
2018-02-01T04:57:57.532Z,0.00
2018-02-01T04:58:57.339Z,0.00
2018-02-01T04:59:57.292Z,0.00
2018-02-01T05:00:57.251Z,0.00
2018-02-01T05:01:57.494Z,0.00
2018-02-01T05:02:57.149Z,0.00
2018-02-01T05:03:57.154Z,0.00
2018-02-01T05:04:57.053Z,0.00
2018-02-01T05:05:57.005Z,0.00
2018-02-01T05:06:56.957Z,0.00
2018-02-01T05:07:57.210Z,0.00
2018-02-01T05:08:56.863Z,0.00
2018-02-01T05:09:56.815Z,0.00
2018-02-01T05:10:56.771Z,0.00
2018-02-01T05:11:56.723Z,0.00
2018-02-01T05:12:56.677Z,0.00
2018-02-01T05:13:56.626Z,0.00
2018-02-01T05:14:56.879Z,0.00
2018-02-01T05:15:56.590Z,0.00
2018-02-01T05:16:56.486Z,0.00
2018-02-01T05:17:56.443Z,0.00
2018-02-01T05:18:56.442Z,0.00
2018-02-01T05:19:56.346Z,0.00
2018-02-01T05:20:56.296Z,0.00
2018-02-01T05:21:56.575Z,0.00
2018-02-01T05:22:56.203Z,0.00
2018-02-01T05:23:56.162Z,0.00
2018-02-01T05:24:56.159Z,0.00
2018-02-01T05:25:56.064Z,0.00
2018-02-01T05:26:56.017Z,0.00
2018-02-01T05:27:55.969Z,0.00
2018-02-01T05:28:56.224Z,0.00
2018-02-01T05:29:55.881Z,0.00
2018-02-01T05:30:55.827Z,0.00
2018-02-01T05:31:55.780Z,0.00
2018-02-01T05:32:55.733Z,0.00
2018-02-01T05:33:55.688Z,0.00
2018-02-01T05:34:55.639Z,0.00
2018-02-01T05:35:55.891Z,0.00
2018-02-01T05:36:55.543Z,0.00
2018-02-01T05:37:55.497Z,0.00
2018-02-01T05:38:55.451Z,0.00
2018-02-01T05:39:55.403Z,0.00
2018-02-01T05:40:55.355Z,0.00
2018-02-01T05:41:55.322Z,0.00
2018-02-01T05:42:55.563Z,0.00
2018-02-01T05:43:55.217Z,0.00
2018-02-01T05:44:55.167Z,0.00
2018-02-01T05:45:55.173Z,0.00
2018-02-01T05:46:55.127Z,0.00
2018-02-01T05:47:55.084Z,0.00
2018-02-01T05:48:54.982Z,0.00
2018-02-01T05:49:55.240Z,0.00
2018-02-01T05:50:54.940Z,0.00
2018-02-01T05:51:54.840Z,0.00
2018-02-01T05:52:54.793Z,0.00
2018-02-01T05:53:54.794Z,0.00
2018-02-01T05:54:54.696Z,0.00
2018-02-01T05:55:54.948Z,0.00
2018-02-01T05:56:54.657Z,0.00
2018-02-01T05:57:54.557Z,0.00
2018-02-01T05:58:54.507Z,0.00
2018-02-01T05:59:54.463Z,0.00
2018-02-01T06:00:54.411Z,0.00
2018-02-01T06:01:54.666Z,0.00
2018-02-01T06:02:54.469Z,0.00
2018-02-01T06:03:54.272Z,0.00
2018-02-01T06:04:54.223Z,0.00
2018-02-01T06:05:54.177Z,0.00
2018-02-01T06:06:54.134Z,0.00
2018-02-01T06:07:54.389Z,0.00
2018-02-01T06:08:54.041Z,0.00
2018-02-01T06:09:53.987Z,0.00
2018-02-01T06:10:53.946Z,0.00
2018-02-01T06:11:53.894Z,0.00
2018-02-01T06:12:53.855Z,0.00
2018-02-01T06:13:54.103Z,0.00
2018-02-01T06:14:53.774Z,0.00
2018-02-01T06:15:53.704Z,0.00
2018-02-01T06:16:53.657Z,0.00
2018-02-01T06:17:53.611Z,0.00
2018-02-01T06:18:53.571Z,0.00
2018-02-01T06:19:53.819Z,0.00
2018-02-01T06:20:53.470Z,0.00
2018-02-01T06:21:53.420Z,0.00
2018-02-01T06:22:53.377Z,0.00
2018-02-01T06:23:53.331Z,0.00
2018-02-01T06:24:53.279Z,0.00
2018-02-01T06:25:53.232Z,0.00
2018-02-01T06:26:53.489Z,0.00
2018-02-01T06:27:53.148Z,0.00
2018-02-01T06:28:53.142Z,0.00
2018-02-01T06:29:53.045Z,0.00
2018-02-01T06:30:53.000Z,0.00
2018-02-01T06:31:52.951Z,0.00
2018-02-01T06:32:52.903Z,0.00
2018-02-01T06:33:53.155Z,0.00
2018-02-01T06:34:52.857Z,0.00
2018-02-01T06:35:52.812Z,0.00
2018-02-01T06:36:52.716Z,0.00
2018-02-01T06:37:53.671Z,0.00
2018-02-01T06:38:52.789Z,0.00
2018-02-01T06:39:53.063Z,0.00
2018-02-01T06:40:53.329Z,0.00
2018-02-01T06:41:52.526Z,0.00
2018-02-01T06:42:53.445Z,0.00
2018-02-01T06:43:53.628Z,0.00
2018-02-01T06:44:53.174Z,0.00
2018-02-01T06:45:52.940Z,0.00
2018-02-01T06:46:52.947Z,0.00
2018-02-01T06:47:53.927Z,0.00
2018-02-01T06:48:53.140Z,0.00
2018-02-01T06:49:52.100Z,0.00
2018-02-01T06:50:52.053Z,0.00
2018-02-01T06:51:52.005Z,0.00
2018-02-01T06:52:51.956Z,0.00
2018-02-01T06:53:51.913Z,0.00
2018-02-01T06:54:52.164Z,5.63
2018-02-01T06:55:51.866Z,5.63
2018-02-01T06:56:51.829Z,5.63
2018-02-01T06:57:51.719Z,5.63
2018-02-01T06:58:51.722Z,5.63
2018-02-01T06:59:51.628Z,5.63
2018-02-01T07:00:51.879Z,11.25
2018-02-01T07:01:51.587Z,11.25
2018-02-01T07:02:51.482Z,11.25
2018-02-01T07:03:51.477Z,11.25
2018-02-01T07:04:51.451Z,16.88
2018-02-01T07:05:51.341Z,16.88
2018-02-01T07:06:51.596Z,16.88
2018-02-01T07:07:51.353Z,22.50
2018-02-01T07:08:51.213Z,22.50
2018-02-01T07:09:51.153Z,22.50
2018-02-01T07:10:51.105Z,28.13
2018-02-01T07:11:51.063Z,28.13
2018-02-01T07:12:51.308Z,33.75
2018-02-01T07:13:50.962Z,33.75
2018-02-01T07:14:50.915Z,33.75
2018-02-01T07:15:50.867Z,39.38
2018-02-01T07:16:50.819Z,45.00
2018-02-01T07:17:50.772Z,45.00
2018-02-01T07:18:51.024Z,50.63
2018-02-01T07:19:50.678Z,56.25
2018-02-01T07:20:50.685Z,61.88
2018-02-01T07:21:50.584Z,61.88
2018-02-01T07:22:50.534Z,67.50
2018-02-01T07:23:50.495Z,73.13
2018-02-01T07:24:50.750Z,78.75
2018-02-01T07:25:50.395Z,84.38
2018-02-01T07:26:50.345Z,84.38
2018-02-01T07:27:50.299Z,90.00
2018-02-01T07:28:50.309Z,90.00
2018-02-01T07:29:50.204Z,95.63
2018-02-01T07:30:50.306Z,95.63
2018-02-01T07:31:50.410Z,101.25
2018-02-01T07:32:50.062Z,106.88
2018-02-01T07:33:50.015Z,106.88
2018-02-01T07:34:49.974Z,106.88
2018-02-01T07:35:49.936Z,112.50
2018-02-01T07:36:49.879Z,112.50
2018-02-01T07:37:49.826Z,123.75
2018-02-01T07:38:50.079Z,135.00
2018-02-01T07:39:49.734Z,140.63
2018-02-01T07:40:49.686Z,146.25
2018-02-01T07:41:49.688Z,157.50
2018-02-01T07:42:49.592Z,163.13
2018-02-01T07:43:49.546Z,163.13
2018-02-01T07:44:49.503Z,163.13
2018-02-01T07:45:49.754Z,163.13
2018-02-01T07:46:49.454Z,174.38
2018-02-01T07:47:49.509Z,191.25
2018-02-01T07:48:49.313Z,208.13
2018-02-01T07:49:49.263Z,241.88
2018-02-01T07:50:49.216Z,298.13
2018-02-01T07:51:49.170Z,360.00
2018-02-01T07:52:49.422Z,393.75
2018-02-01T07:53:49.080Z,450.00
2018-02-01T07:54:49.063Z,331.88
2018-02-01T07:55:48.985Z,258.75
2018-02-01T07:56:48.937Z,258.75
2018-02-01T07:57:48.894Z,466.88
2018-02-01T07:58:48.854Z,450.00
2018-02-01T07:59:49.100Z,405.00
2018-02-01T08:00:48.752Z,399.38
2018-02-01T08:01:48.707Z,573.75
2018-02-01T08:02:48.662Z,568.13
2018-02-01T08:03:48.612Z,624.38
2018-02-01T08:04:48.571Z,562.50
2018-02-01T08:05:48.527Z,635.63
2018-02-01T08:06:48.825Z,601.88
2018-02-01T08:07:48.520Z,770.63
2018-02-01T08:08:48.438Z,680.63
2018-02-01T08:09:48.436Z,714.38
2018-02-01T08:10:48.294Z,781.88
2018-02-01T08:11:48.244Z,416.25
2018-02-01T08:12:48.503Z,461.25
2018-02-01T08:13:48.153Z,421.88
2018-02-01T08:14:48.111Z,500.63
2018-02-01T08:15:48.084Z,360.00
2018-02-01T08:16:48.019Z,365.63
2018-02-01T08:17:47.973Z,337.50
2018-02-01T08:18:48.234Z,315.00
2018-02-01T08:19:47.933Z,286.88
2018-02-01T08:20:47.991Z,309.38
2018-02-01T08:21:47.793Z,315.00
2018-02-01T08:22:47.746Z,315.00
2018-02-01T08:23:47.700Z,258.75
2018-02-01T08:24:47.954Z,264.38
2018-02-01T08:25:47.662Z,286.88
2018-02-01T08:26:47.564Z,253.13
2018-02-01T08:27:47.573Z,286.88
2018-02-01T08:28:47.472Z,253.13
2018-02-01T08:29:47.425Z,264.38
2018-02-01T08:30:47.682Z,303.75
2018-02-01T08:31:47.334Z,298.13
2018-02-01T08:32:47.289Z,298.13
2018-02-01T08:33:47.250Z,281.25
2018-02-01T08:34:47.225Z,270.00
2018-02-01T08:35:47.171Z,326.25
2018-02-01T08:36:47.409Z,320.63
2018-02-01T08:37:47.060Z,270.00
2018-02-01T08:38:47.164Z,348.75
2018-02-01T08:39:46.988Z,399.38
2018-02-01T08:40:46.924Z,416.25
2018-02-01T08:41:46.877Z,455.63
2018-02-01T08:42:46.881Z,556.88
2018-02-01T08:43:47.085Z,511.88
2018-02-01T08:44:46.742Z,680.63
2018-02-01T08:45:46.745Z,883.13
2018-02-01T08:46:46.659Z,568.13
2018-02-01T08:47:46.603Z,523.13
2018-02-01T08:48:46.557Z,438.75
2018-02-01T08:49:46.561Z,315.00
2018-02-01T08:50:46.901Z,343.13
2018-02-01T08:51:46.424Z,348.75
2018-02-01T08:52:46.425Z,348.75
2018-02-01T08:53:46.334Z,399.38
2018-02-01T08:54:46.285Z,270.00
2018-02-01T08:55:46.238Z,303.75
2018-02-01T08:56:46.193Z,410.63
2018-02-01T08:57:46.448Z,478.13
2018-02-01T08:58:46.153Z,427.50
2018-02-01T08:59:46.058Z,343.13
2018-02-01T09:00:46.062Z,303.75
2018-02-01T09:01:45.966Z,331.88
2018-02-01T09:02:45.927Z,511.88
2018-02-01T09:03:45.882Z,511.88
2018-02-01T09:04:46.131Z,444.38
2018-02-01T09:05:45.788Z,354.38
2018-02-01T09:06:45.740Z,326.25
2018-02-01T09:07:45.697Z,331.88
2018-02-01T09:08:45.648Z,326.25
2018-02-01T09:09:45.653Z,388.13
2018-02-01T09:10:45.561Z,388.13
2018-02-01T09:11:45.814Z,528.75
2018-02-01T09:12:45.517Z,618.75
2018-02-01T09:13:45.422Z,686.25
2018-02-01T09:14:45.377Z,506.25
2018-02-01T09:15:45.383Z,601.88
2018-02-01T09:16:45.288Z,731.25
2018-02-01T09:17:45.293Z,568.13
2018-02-01T09:18:45.498Z,562.50
2018-02-01T09:19:45.195Z,523.13
2018-02-01T09:20:45.119Z,540.00
2018-02-01T09:21:45.061Z,416.25
2018-02-01T09:22:45.019Z,444.38
2018-02-01T09:23:45.022Z,523.13
2018-02-01T09:24:45.229Z,455.63
2018-02-01T09:25:44.882Z,618.75
2018-02-01T09:26:44.837Z,624.38
2018-02-01T09:27:44.793Z,883.13
2018-02-01T09:28:44.748Z,1012.50
2018-02-01T09:29:44.759Z,708.75
2018-02-01T09:30:44.969Z,708.75
2018-02-01T09:31:44.617Z,596.25
2018-02-01T09:32:44.574Z,562.50
2018-02-01T09:33:44.525Z,517.50
2018-02-01T09:34:44.479Z,635.63
2018-02-01T09:35:44.441Z,916.88
2018-02-01T09:36:44.694Z,821.25
2018-02-01T09:37:44.347Z,1057.50
2018-02-01T09:38:44.310Z,663.75
2018-02-01T09:39:44.259Z,478.13
2018-02-01T09:40:44.217Z,624.38
2018-02-01T09:41:44.183Z,810.00
2018-02-01T09:42:44.427Z,956.25
2018-02-01T09:43:44.136Z,2435.63
2018-02-01T09:44:44.039Z,2626.88
2018-02-01T09:45:44.000Z,1226.25
2018-02-01T09:46:44.004Z,708.75
2018-02-01T09:47:43.910Z,714.38
2018-02-01T09:48:44.174Z,781.88
2018-02-01T09:49:43.877Z,2745.00
2018-02-01T09:50:43.778Z,2171.25
2018-02-01T09:51:43.786Z,2559.38
2018-02-01T09:52:43.695Z,1051.88
2018-02-01T09:53:43.656Z,815.63
2018-02-01T09:54:43.614Z,753.75
2018-02-01T09:55:43.919Z,1113.75
2018-02-01T09:56:43.526Z,2160.00
2018-02-01T09:57:43.490Z,2041.88
2018-02-01T09:58:43.444Z,478.13
2018-02-01T09:59:43.397Z,495.00
2018-02-01T10:00:43.354Z,630.00
2018-02-01T10:01:43.371Z,2514.38
2018-02-01T10:02:43.578Z,905.63
2018-02-01T10:03:43.227Z,1057.50
2018-02-01T10:04:43.188Z,2818.13
2018-02-01T10:05:43.143Z,810.00
2018-02-01T10:06:43.150Z,630.00
2018-02-01T10:07:43.058Z,866.25
2018-02-01T10:08:43.018Z,691.88
2018-02-01T10:09:43.342Z,703.13
2018-02-01T10:10:42.932Z,1153.13
2018-02-01T10:11:42.888Z,1406.25
2018-02-01T10:12:42.935Z,1243.13
2018-02-01T10:13:42.804Z,2885.63
2018-02-01T10:14:42.762Z,973.13
2018-02-01T10:15:42.771Z,911.25
2018-02-01T10:16:43.027Z,770.63
2018-02-01T10:17:42.641Z,894.38
2018-02-01T10:18:42.593Z,860.63
2018-02-01T10:19:42.563Z,753.75
2018-02-01T10:20:42.573Z,669.38
2018-02-01T10:21:42.471Z,815.63
2018-02-01T10:22:42.429Z,708.75
2018-02-01T10:23:42.694Z,624.38
2018-02-01T10:24:42.344Z,663.75
2018-02-01T10:25:42.321Z,601.88
2018-02-01T10:26:42.312Z,697.50
2018-02-01T10:27:42.272Z,810.00
2018-02-01T10:28:42.180Z,832.50
2018-02-01T10:29:42.161Z,877.50
2018-02-01T10:30:42.440Z,798.75
2018-02-01T10:31:42.099Z,770.63
2018-02-01T10:32:42.002Z,691.88
2018-02-01T10:33:41.967Z,838.13
2018-02-01T10:34:41.918Z,849.38
2018-02-01T10:35:41.954Z,855.00
2018-02-01T10:36:42.142Z,742.50
2018-02-01T10:37:41.844Z,596.25
2018-02-01T10:38:41.752Z,641.25
2018-02-01T10:39:41.760Z,675.00
2018-02-01T10:40:41.757Z,523.13
2018-02-01T10:41:41.619Z,455.63
2018-02-01T10:42:41.876Z,534.38
2018-02-01T10:43:41.533Z,500.63
2018-02-01T10:44:41.491Z,466.88
2018-02-01T10:45:41.598Z,545.63
2018-02-01T10:46:41.414Z,489.38
2018-02-01T10:47:41.361Z,388.13
2018-02-01T10:48:41.666Z,331.88
2018-02-01T10:49:41.324Z,298.13
2018-02-01T10:50:41.282Z,421.88
2018-02-01T10:51:41.241Z,399.38
2018-02-01T10:52:41.143Z,264.38
2018-02-01T10:53:41.099Z,270.00
2018-02-01T10:54:41.058Z,354.38
2018-02-01T10:55:41.064Z,371.25
2018-02-01T10:56:40.969Z,421.88
2018-02-01T10:57:40.926Z,528.75
2018-02-01T10:58:40.882Z,686.25
2018-02-01T10:59:40.840Z,815.63
2018-02-01T11:00:41.094Z,781.88
2018-02-01T11:01:40.750Z,669.38
2018-02-01T11:02:40.760Z,540.00
2018-02-01T11:03:40.662Z,455.63
2018-02-01T11:04:40.618Z,371.25
2018-02-01T11:05:40.626Z,298.13
2018-02-01T11:06:40.539Z,241.88
2018-02-01T11:07:40.790Z,196.88
2018-02-01T11:08:40.448Z,151.88
2018-02-01T11:09:40.451Z,140.63
2018-02-01T11:10:40.406Z,140.63
2018-02-01T11:11:40.314Z,123.75
2018-02-01T11:12:40.273Z,112.50
2018-02-01T11:13:40.225Z,129.38
2018-02-01T11:14:40.480Z,140.63
2018-02-01T11:15:40.141Z,140.63
2018-02-01T11:16:40.345Z,168.75
2018-02-01T11:17:40.094Z,174.38
2018-02-01T11:18:40.020Z,180.00
2018-02-01T11:19:39.961Z,174.38
2018-02-01T11:20:39.918Z,146.25
2018-02-01T11:21:40.185Z,135.00
2018-02-01T11:22:39.882Z,123.75
2018-02-01T11:23:39.781Z,146.25
2018-02-01T11:24:39.735Z,140.63
2018-02-01T11:25:39.739Z,185.63
2018-02-01T11:26:39.644Z,225.00
2018-02-01T11:27:39.604Z,298.13
2018-02-01T11:28:39.857Z,331.88
2018-02-01T11:29:39.573Z,348.75
2018-02-01T11:30:39.471Z,337.50
2018-02-01T11:31:39.474Z,281.25
2018-02-01T11:32:39.433Z,292.50
2018-02-01T11:33:39.331Z,309.38
2018-02-01T11:34:39.339Z,320.63
2018-02-01T11:35:39.613Z,225.00
2018-02-01T11:36:39.202Z,180.00
2018-02-01T11:37:39.202Z,163.13
2018-02-01T11:38:39.163Z,180.00
2018-02-01T11:39:39.129Z,157.50
2018-02-01T11:40:39.066Z,191.25
2018-02-01T11:41:38.975Z,225.00
2018-02-01T11:42:39.230Z,185.63
2018-02-01T11:43:38.884Z,174.38
2018-02-01T11:44:38.888Z,135.00
2018-02-01T11:45:38.845Z,129.38
2018-02-01T11:46:38.752Z,123.75
2018-02-01T11:47:38.762Z,101.25
2018-02-01T11:48:38.962Z,90.00
2018-02-01T11:49:38.667Z,101.25
2018-02-01T11:50:38.618Z,95.63
2018-02-01T11:51:38.526Z,101.25
2018-02-01T11:52:38.533Z,90.00
2018-02-01T11:53:38.582Z,123.75
2018-02-01T11:54:38.787Z,129.38
2018-02-01T11:55:38.391Z,123.75
2018-02-01T11:56:38.348Z,129.38
2018-02-01T11:57:38.303Z,123.75
2018-02-01T11:58:38.256Z,174.38
2018-02-01T11:59:38.160Z,191.25
2018-02-01T12:00:38.566Z,174.38
2018-02-01T12:01:38.078Z,174.38
2018-02-01T12:02:38.073Z,174.38
2018-02-01T12:03:38.034Z,157.50
2018-02-01T12:04:37.993Z,135.00
2018-02-01T12:05:37.937Z,157.50
2018-02-01T12:06:38.143Z,191.25
2018-02-01T12:07:37.848Z,185.63
2018-02-01T12:08:37.812Z,196.88
2018-02-01T12:09:37.755Z,185.63
2018-02-01T12:10:37.810Z,202.50
2018-02-01T12:11:37.617Z,185.63
2018-02-01T12:12:37.871Z,157.50
2018-02-01T12:13:37.575Z,140.63
2018-02-01T12:14:37.481Z,146.25
2018-02-01T12:15:37.484Z,180.00
2018-02-01T12:16:37.388Z,225.00
2018-02-01T12:17:37.444Z,202.50
2018-02-01T12:18:37.349Z,202.50
2018-02-01T12:19:37.603Z,196.88
2018-02-01T12:20:37.256Z,168.75
2018-02-01T12:21:37.161Z,168.75
2018-02-01T12:22:37.169Z,151.88
2018-02-01T12:23:37.071Z,129.38
2018-02-01T12:24:37.084Z,123.75
2018-02-01T12:25:37.060Z,135.00
2018-02-01T12:26:37.339Z,135.00
2018-02-01T12:27:36.891Z,129.38
2018-02-01T12:28:36.894Z,140.63
2018-02-01T12:29:36.799Z,129.38
2018-02-01T12:30:36.758Z,140.63
2018-02-01T12:31:36.765Z,157.50
2018-02-01T12:32:36.712Z,146.25
2018-02-01T12:33:36.618Z,129.38
2018-02-01T12:34:36.624Z,135.00
2018-02-01T12:35:36.535Z,135.00
2018-02-01T12:36:36.534Z,140.63
2018-02-01T12:37:36.447Z,151.88
2018-02-01T12:38:36.445Z,168.75
2018-02-01T12:39:36.846Z,180.00
2018-02-01T12:40:36.360Z,185.63
2018-02-01T12:41:36.306Z,168.75
2018-02-01T12:42:36.258Z,174.38
2018-02-01T12:43:36.162Z,185.63
2018-02-01T12:44:36.172Z,191.25
2018-02-01T12:45:36.071Z,208.13
2018-02-01T12:46:36.334Z,213.75
2018-02-01T12:47:35.981Z,219.38
2018-02-01T12:48:35.989Z,236.25
2018-02-01T12:49:35.938Z,230.63
2018-02-01T12:50:35.843Z,230.63
2018-02-01T12:51:35.856Z,208.13
2018-02-01T12:52:35.825Z,163.13
2018-02-01T12:53:37.331Z,146.25
2018-02-01T12:54:36.249Z,140.63
2018-02-01T12:55:35.842Z,146.25